createdAt,value
2023-01-04T00:00:52.207Z,99589.03
2023-01-04T00:03:19.126Z,99590.91
2023-01-04T00:05:45.819Z,99592.69
2023-01-04T00:08:12.480Z,99593.53
2023-01-04T00:10:39.144Z,99587.16
2023-01-04T00:13:05.785Z,99574.84
2023-01-04T00:15:32.460Z,99579.31
2023-01-04T00:17:59.157Z,99567.00
2023-01-04T00:20:25.801Z,99568.75
2023-01-04T00:22:52.451Z,99571.50
2023-01-04T00:25:19.336Z,99560.00
2023-01-04T00:27:46.051Z,99579.22
2023-01-04T00:30:13.151Z,99557.28
2023-01-04T00:32:39.867Z,99556.44
2023-01-04T00:35:06.650Z,99545.78
2023-01-04T00:37:33.290Z,99547.66
2023-01-04T00:39:59.895Z,99545.06
2023-01-04T00:42:26.558Z,99541.53
2023-01-04T00:44:53.194Z,99530.06
2023-01-04T00:47:19.868Z,99532.75
2023-01-04T00:49:46.536Z,99533.59
2023-01-04T00:52:13.360Z,99524.88
2023-01-04T00:54:40.059Z,99521.28
2023-01-04T00:57:07.299Z,99536.28
2023-01-04T00:59:33.899Z,99521.38
2023-01-04T01:02:00.793Z,99518.72
2023-01-04T01:04:27.756Z,99522.25
2023-01-04T01:06:54.591Z,99521.28
2023-01-04T01:09:24.638Z,99516.00
2023-01-04T01:11:54.954Z,99513.47
2023-01-04T01:14:25.442Z,99513.47
2023-01-04T01:16:56.681Z,99522.25
2023-01-04T01:19:25.328Z,99506.47
2023-01-04T01:21:52.045Z,99500.34
2023-01-04T01:24:19.651Z,99498.53
2023-01-04T01:26:46.767Z,99503.81
2023-01-04T01:29:13.903Z,99496.75
2023-01-04T01:31:41.259Z,99503.84
2023-01-04T01:34:08.616Z,99508.19
2023-01-04T01:36:35.324Z,99502.97
2023-01-04T01:39:01.988Z,99506.50
2023-01-04T01:41:32.389Z,99493.28
2023-01-04T01:44:01.035Z,99497.72
2023-01-04T01:46:33.689Z,99488.97
2023-01-04T01:49:19.269Z,99488.94
2023-01-04T01:51:46.004Z,99489.84
2023-01-04T01:54:20.660Z,99491.56
2023-01-04T01:56:51.355Z,99485.44
2023-01-04T01:59:19.446Z,99488.97
2023-01-04T02:01:46.526Z,99476.69
2023-01-04T02:04:15.483Z,99474.03
2023-01-04T02:06:47.642Z,99478.47
2023-01-04T02:09:15.092Z,99477.56
2023-01-04T02:11:41.788Z,99478.41
2023-01-04T02:14:27.602Z,99486.28
2023-01-04T02:17:06.268Z,99479.28
2023-01-04T02:19:51.867Z,99462.59
2023-01-04T02:22:58.098Z,99468.78
2023-01-04T02:25:33.951Z,99466.13
2023-01-04T02:28:09.605Z,99464.34
2023-01-04T02:30:45.474Z,99447.66
2023-01-04T02:33:18.000Z,99458.22
2023-01-04T02:36:05.679Z,99446.75
2023-01-04T02:39:11.076Z,99443.22
2023-01-04T02:42:16.768Z,99444.13
2023-01-04T02:45:01.321Z,99445.88
2023-01-04T02:47:49.391Z,99443.22
2023-01-04T02:50:32.089Z,99433.56
2023-01-04T02:53:05.130Z,99424.78
2023-01-04T02:55:44.465Z,99426.53
2023-01-04T02:58:25.152Z,99429.13
2023-01-04T03:01:20.219Z,99416.91
2023-01-04T03:04:26.835Z,99408.09
2023-01-04T03:07:03.953Z,99402.78
2023-01-04T03:09:35.541Z,99403.69
2023-01-04T03:12:26.908Z,99406.34
2023-01-04T03:15:12.624Z,99398.44
2023-01-04T03:18:13.639Z,99407.25
2023-01-04T03:20:43.764Z,99408.09
2023-01-04T03:23:33.055Z,99405.44
2023-01-04T03:26:23.448Z,99401.06
2023-01-04T03:29:11.232Z,99395.81
2023-01-04T03:32:01.645Z,99381.72
2023-01-04T03:34:47.569Z,99374.69
2023-01-04T03:37:17.110Z,99367.69
2023-01-04T03:40:17.615Z,99368.53
2023-01-04T03:43:06.107Z,99371.19
2023-01-04T03:45:59.194Z,99365.91
2023-01-04T03:48:36.159Z,99371.19
2023-01-04T03:51:15.006Z,99372.06
2023-01-04T03:53:56.729Z,99366.78
2023-01-04T03:56:26.536Z,99364.19
2023-01-04T03:58:54.693Z,99367.69
2023-01-04T04:01:23.724Z,99372.06
2023-01-04T04:04:08.872Z,99364.16
2023-01-04T04:06:54.161Z,99358.84
2023-01-04T04:09:20.966Z,99354.50
2023-01-04T04:11:47.719Z,99363.25
2023-01-04T04:14:14.426Z,99345.69
2023-01-04T04:16:41.370Z,99345.69
2023-01-04T04:19:09.070Z,99343.06
2023-01-04T04:21:36.399Z,99343.91
2023-01-04T04:24:03.766Z,99350.06
2023-01-04T04:26:30.762Z,99358.00
2023-01-04T04:28:57.428Z,99348.28
2023-01-04T04:31:24.272Z,99353.59
2023-01-04T04:33:50.994Z,99359.75
2023-01-04T04:36:17.638Z,99346.53
2023-01-04T04:38:44.287Z,99365.03
2023-01-04T04:41:31.879Z,99353.56
2023-01-04T04:43:59.236Z,99356.22
2023-01-04T04:46:25.901Z,99342.13
2023-01-04T04:48:52.819Z,99333.34
2023-01-04T04:51:19.485Z,99345.69
2023-01-04T04:53:46.170Z,99343.91
2023-01-04T04:56:12.821Z,99342.16
2023-01-04T04:58:40.009Z,99331.56
2023-01-04T05:01:07.326Z,99318.34
2023-01-04T05:03:34.580Z,99320.16
2023-01-04T05:06:01.595Z,99303.44
2023-01-04T05:08:28.848Z,99306.84
2023-01-04T05:10:55.520Z,99312.22
2023-01-04T05:13:22.561Z,99300.78
2023-01-04T05:15:50.845Z,99305.22
2023-01-04T05:18:19.676Z,99313.16
2023-01-04T05:20:47.523Z,99300.78
2023-01-04T05:23:15.697Z,99313.16
2023-01-04T05:25:42.701Z,99314.94
2023-01-04T05:28:10.149Z,99306.13
2023-01-04T05:30:53.269Z,99306.13
2023-01-04T05:33:22.818Z,99300.81
2023-01-04T05:35:50.233Z,99311.44
2023-01-04T05:38:17.375Z,99303.50
2023-01-04T05:40:44.254Z,99299.06
2023-01-04T05:43:11.245Z,99294.69
2023-01-04T05:45:37.893Z,99297.31
2023-01-04T05:48:04.824Z,99305.19
2023-01-04T05:50:31.646Z,99299.91
2023-01-04T05:53:07.725Z,99313.16
2023-01-04T05:55:34.656Z,99300.81
2023-01-04T05:58:01.399Z,99307.91
2023-01-04T06:00:28.892Z,99299.06
2023-01-04T06:02:56.996Z,99296.41
2023-01-04T06:05:24.590Z,99295.50
2023-01-04T06:07:51.485Z,99281.47
2023-01-04T06:10:19.304Z,99278.00
2023-01-04T06:12:47.385Z,99287.69
2023-01-04T06:15:14.514Z,99288.53
2023-01-04T06:17:41.549Z,99279.75
2023-01-04T06:20:10.500Z,99272.75
2023-01-04T06:22:38.037Z,99291.22
2023-01-04T06:25:05.144Z,99281.47
2023-01-04T06:27:31.890Z,99282.41
2023-01-04T06:29:58.587Z,99275.34
2023-01-04T06:32:25.368Z,99273.59
2023-01-04T06:34:52.144Z,99284.16
2023-01-04T06:37:18.865Z,99263.06
2023-01-04T06:39:45.575Z,99263.88
2023-01-04T06:42:32.181Z,99259.47
2023-01-04T06:44:58.971Z,99254.25
2023-01-04T06:47:25.815Z,99256.84
2023-01-04T06:49:52.772Z,99263.03
2023-01-04T06:52:19.572Z,99257.81
2023-01-04T06:54:46.397Z,99252.44
2023-01-04T06:57:13.757Z,99243.72
2023-01-04T06:59:40.541Z,99232.28
2023-01-04T07:02:07.503Z,99228.69
2023-01-04T07:04:34.323Z,99224.22
2023-01-04T07:07:02.052Z,99234.06
2023-01-04T07:09:28.764Z,99229.63
2023-01-04T07:11:55.385Z,99221.63
2023-01-04T07:14:22.100Z,99231.38
2023-01-04T07:16:48.813Z,99240.19
2023-01-04T07:19:15.645Z,99232.25
2023-01-04T07:21:42.450Z,99226.09
2023-01-04T07:24:09.415Z,99233.16
2023-01-04T07:26:36.287Z,99234.03
2023-01-04T07:29:15.550Z,99221.69
2023-01-04T07:31:52.545Z,99230.47
2023-01-04T07:34:22.443Z,99227.88
2023-01-04T07:36:50.100Z,99237.47
2023-01-04T07:39:18.404Z,99225.06
2023-01-04T07:41:46.008Z,99235.75
2023-01-04T07:44:14.970Z,99247.97
2023-01-04T07:46:42.713Z,99252.41
2023-01-04T07:49:17.734Z,99252.31
2023-01-04T07:51:49.638Z,99244.38
2023-01-04T07:54:17.388Z,99261.16
2023-01-04T07:56:47.824Z,99274.44
2023-01-04T07:59:16.204Z,99259.47
2023-01-04T08:01:43.523Z,99263.75
2023-01-04T08:04:12.546Z,99254.13
2023-01-04T08:06:40.649Z,99242.56
2023-01-04T08:09:11.469Z,99233.75
2023-01-04T08:11:38.652Z,99238.25
2023-01-04T08:14:05.366Z,99225.88
2023-01-04T08:16:37.663Z,99242.59
2023-01-04T08:19:13.293Z,99246.03
2023-01-04T08:21:40.039Z,99263.59
2023-01-04T08:24:09.940Z,99264.41
2023-01-04T08:26:36.665Z,99249.41
2023-01-04T08:29:03.343Z,99266.03
2023-01-04T08:31:32.153Z,99251.19
2023-01-04T08:34:01.417Z,99254.72
2023-01-04T08:36:30.758Z,99251.13
2023-01-04T08:39:03.226Z,99246.91
2023-01-04T08:41:56.148Z,99244.13
2023-01-04T08:44:18.836Z,99261.88
2023-01-04T08:46:46.108Z,99263.53
2023-01-04T08:49:13.162Z,99265.06
2023-01-04T08:51:40.297Z,99259.16
2023-01-04T08:54:07.309Z,99245.84
2023-01-04T08:56:34.058Z,99249.53
2023-01-04T08:59:01.571Z,99248.28
2023-01-04T09:01:28.426Z,99251.06
2023-01-04T09:03:56.371Z,99244.00
2023-01-04T09:06:23.271Z,99235.16
2023-01-04T09:08:50.592Z,99236.00
2023-01-04T09:11:20.143Z,99246.66
2023-01-04T09:13:47.613Z,99253.72
2023-01-04T09:16:17.211Z,99238.72
2023-01-04T09:18:44.701Z,99238.50
2023-01-04T09:21:16.480Z,99239.59
2023-01-04T09:23:44.721Z,99243.19
2023-01-04T09:26:14.607Z,99230.22
2023-01-04T09:28:42.099Z,99234.59
2023-01-04T09:31:17.926Z,99223.69
2023-01-04T09:34:13.622Z,99233.50
2023-01-04T09:36:32.487Z,99224.13
2023-01-04T09:38:59.174Z,99230.06
2023-01-04T09:41:27.650Z,99235.09
2023-01-04T09:44:02.157Z,99228.25
2023-01-04T09:46:46.829Z,99240.41
2023-01-04T09:49:21.176Z,99223.19
2023-01-04T09:52:00.492Z,99241.53
2023-01-04T09:54:42.498Z,99227.16
2023-01-04T09:57:45.553Z,99219.28
2023-01-04T10:00:19.813Z,99214.00
2023-01-04T10:03:11.913Z,99217.69
2023-01-04T10:05:40.409Z,99214.13
2023-01-04T10:08:15.612Z,99230.72
2023-01-04T10:11:14.546Z,99237.84
2023-01-04T10:14:11.842Z,99228.16
2023-01-04T10:17:12.923Z,99227.34
2023-01-04T10:21:12.030Z,99227.34
2023-01-04T10:22:51.270Z,99224.78
2023-01-04T10:25:23.284Z,99215.91
2023-01-04T10:28:25.158Z,99197.69
2023-01-04T10:31:01.102Z,99212.28
2023-01-04T10:33:50.492Z,99203.69
2023-01-04T10:36:25.252Z,99206.91
2023-01-04T10:39:00.375Z,99210.47
2023-01-04T10:41:31.860Z,99200.88
2023-01-04T10:44:12.209Z,99206.91
2023-01-04T10:46:58.070Z,99204.03
2023-01-04T10:49:43.653Z,99197.88
2023-01-04T10:52:26.964Z,99183.72
2023-01-04T10:55:01.918Z,99183.41
2023-01-04T10:57:39.390Z,99175.44
2023-01-04T11:00:13.502Z,99168.13
2023-01-04T11:02:47.347Z,99163.31
2023-01-04T11:05:20.829Z,99164.88
2023-01-04T11:07:59.894Z,99169.19
2023-01-04T11:10:50.768Z,99164.88
2023-01-04T11:13:17.925Z,99157.66
2023-01-04T11:15:45.565Z,99162.59
2023-01-04T11:18:13.988Z,99163.09
2023-01-04T11:20:41.296Z,99158.72
2023-01-04T11:23:14.437Z,99154.31
2023-01-04T11:26:13.284Z,99153.34
2023-01-04T11:28:44.356Z,99161.94
2023-01-04T11:31:20.190Z,99152.59
2023-01-04T11:33:58.787Z,99146.66
2023-01-04T11:36:31.727Z,99152.75
2023-01-04T11:38:59.105Z,99156.84
2023-01-04T11:41:26.661Z,99154.28
2023-01-04T11:44:03.462Z,99144.06
2023-01-04T11:46:31.940Z,99146.47
2023-01-04T11:48:58.882Z,99140.97
2023-01-04T11:51:31.700Z,99140.31
2023-01-04T11:54:15.174Z,99140.66
2023-01-04T11:57:05.808Z,99142.78
2023-01-04T11:59:35.626Z,99114.41
2023-01-04T12:02:58.634Z,99133.72
2023-01-04T12:05:29.005Z,99127.88
2023-01-04T12:07:58.051Z,99131.44
2023-01-04T12:10:27.561Z,99107.81
2023-01-04T12:12:56.346Z,99109.53
2023-01-04T12:16:05.157Z,99110.63
2023-01-04T12:18:38.916Z,99113.38
2023-01-04T12:21:05.979Z,99091.47
2023-01-04T12:23:34.207Z,99080.16
2023-01-04T12:26:01.955Z,99083.81
2023-01-04T12:28:31.112Z,99074.81
2023-01-04T12:31:20.222Z,99061.28
2023-01-04T12:34:17.389Z,99075.59
2023-01-04T12:36:50.124Z,99072.75
2023-01-04T12:39:16.825Z,99078.09
2023-01-04T12:42:00.201Z,99074.56
2023-01-04T12:44:38.999Z,99073.81
2023-01-04T12:47:36.724Z,99080.84
2023-01-04T12:50:27.426Z,99059.56
2023-01-04T12:53:29.328Z,99057.97
2023-01-04T12:55:45.418Z,99065.13
2023-01-04T12:58:41.061Z,99051.06
2023-01-04T13:01:26.035Z,99051.00
2023-01-04T13:04:04.689Z,99064.81
2023-01-04T13:06:41.555Z,99064.22
2023-01-04T13:09:24.920Z,99064.22
2023-01-04T13:12:03.945Z,99063.44
2023-01-04T13:14:40.524Z,99049.34
2023-01-04T13:17:15.002Z,99057.31
2023-01-04T13:19:43.932Z,99055.31
2023-01-04T13:22:18.204Z,99057.53
2023-01-04T13:24:49.137Z,99055.31
2023-01-04T13:27:21.697Z,99057.47
2023-01-04T13:29:52.282Z,99042.63
2023-01-04T13:32:30.545Z,99041.34
2023-01-04T13:35:23.774Z,99031.53
2023-01-04T13:37:51.393Z,99038.03
2023-01-04T13:40:34.293Z,99025.56
2023-01-04T13:43:16.136Z,99019.91
2023-01-04T13:46:07.960Z,99027.03
2023-01-04T13:48:41.462Z,99013.25
2023-01-04T13:51:16.360Z,99021.41
2023-01-04T13:53:57.369Z,99015.50
2023-01-04T13:56:27.093Z,99011.69
2023-01-04T13:58:54.224Z,99007.00
2023-01-04T14:01:26.562Z,99020.63
2023-01-04T14:04:01.770Z,99013.63
2023-01-04T14:06:34.251Z,99011.06
2023-01-04T14:09:25.058Z,99003.06
2023-01-04T14:14:55.344Z,99001.00
2023-01-04T14:17:32.237Z,98996.22
2023-01-04T14:20:26.499Z,99000.94
2023-01-04T14:22:58.310Z,99013.63
2023-01-04T14:25:34.148Z,99014.34
2023-01-04T14:28:22.437Z,99011.69
2023-01-04T14:30:52.180Z,98992.88
2023-01-04T14:33:26.198Z,98991.84
2023-01-04T14:36:04.008Z,98999.53
2023-01-04T14:38:35.329Z,98989.88
2023-01-04T14:41:18.454Z,98987.47
2023-01-04T14:43:55.030Z,98991.06
2023-01-04T14:46:22.887Z,98989.00
2023-01-04T14:48:49.845Z,98980.38
2023-01-04T14:51:19.838Z,98979.28
2023-01-04T14:53:46.693Z,98976.72
2023-01-04T14:56:15.812Z,98968.50
2023-01-04T14:58:43.124Z,98967.66
2023-01-04T15:01:11.097Z,98967.84
2023-01-04T15:03:38.883Z,98946.09
2023-01-04T15:06:06.596Z,98967.88
2023-01-04T15:08:33.897Z,98970.34
2023-01-04T15:11:00.626Z,98978.06
2023-01-04T15:13:28.046Z,98961.88
2023-01-04T15:15:57.192Z,98972.88
2023-01-04T15:18:24.023Z,98958.69
2023-01-04T15:20:50.681Z,98976.81
2023-01-04T15:23:17.339Z,98973.00
2023-01-04T15:25:44.553Z,98969.03
2023-01-04T15:28:11.273Z,98959.81
2023-01-04T15:30:42.875Z,98964.63
2023-01-04T15:33:10.262Z,98963.94
2023-01-04T15:35:36.916Z,98970.94
2023-01-04T15:38:06.455Z,98969.09
2023-01-04T15:40:35.792Z,98983.09
2023-01-04T15:43:03.207Z,98965.66
2023-01-04T15:45:40.368Z,98956.22
2023-01-04T15:48:11.105Z,98972.84
2023-01-04T15:50:40.421Z,98963.56
2023-01-04T15:53:07.811Z,98963.41
2023-01-04T15:55:37.012Z,98961.56
2023-01-04T15:58:05.107Z,98953.75
2023-01-04T16:00:32.809Z,98953.00
2023-01-04T16:02:59.752Z,98953.47
2023-01-04T16:05:26.533Z,98949.69
2023-01-04T16:07:53.274Z,98963.38
2023-01-04T16:10:20.061Z,98941.69
2023-01-04T16:12:54.565Z,98938.16
2023-01-04T16:15:23.358Z,98943.31
2023-01-04T16:17:50.335Z,98944.41
2023-01-04T16:20:18.476Z,98950.63
2023-01-04T16:22:45.704Z,98949.16
2023-01-04T16:25:13.096Z,98949.81
2023-01-04T16:27:40.854Z,98945.16
2023-01-04T16:30:11.130Z,98956.66
2023-01-04T16:32:43.480Z,98946.09
2023-01-04T16:35:11.594Z,98954.22
2023-01-04T16:37:39.096Z,98956.13
2023-01-04T16:40:07.874Z,98960.69
2023-01-04T16:42:36.258Z,98961.56
2023-01-04T16:45:03.729Z,98956.84
2023-01-04T16:47:39.009Z,98956.28
2023-01-04T16:50:07.066Z,98954.28
2023-01-04T16:52:33.848Z,98947.28
2023-01-04T16:55:00.534Z,98945.50
2023-01-04T16:57:27.275Z,98959.50
2023-01-04T16:59:53.918Z,98946.94
2023-01-04T17:02:21.018Z,98952.78
2023-01-04T17:04:54.379Z,98937.06
2023-01-04T17:07:21.645Z,98948.97
2023-01-04T17:09:51.376Z,98933.59
2023-01-04T17:15:41.298Z,98943.94
2023-01-04T17:17:52.031Z,98943.47
2023-01-04T17:20:18.960Z,98940.75
2023-01-04T17:22:45.755Z,98938.34
2023-01-04T17:25:12.555Z,98933.59
2023-01-04T17:27:39.327Z,98929.22
2023-01-04T17:30:06.556Z,98940.03
2023-01-04T17:32:33.226Z,98948.66
2023-01-04T17:34:59.868Z,98930.13
2023-01-04T17:37:27.100Z,98921.06
2023-01-04T17:39:54.340Z,98919.56
2023-01-04T17:42:21.280Z,98937.69
2023-01-04T17:44:49.381Z,98920.81
2023-01-04T17:47:16.099Z,98926.31
2023-01-04T17:49:42.754Z,98922.25
2023-01-04T17:52:10.984Z,98924.06
2023-01-04T17:54:40.408Z,98916.72
2023-01-04T17:57:07.076Z,98911.19
2023-01-04T17:59:33.767Z,98930.97
2023-01-04T18:02:00.550Z,98928.13
2023-01-04T18:04:27.306Z,98924.06
2023-01-04T18:06:54.400Z,98913.94
2023-01-04T18:09:24.538Z,98922.34
2023-01-04T18:11:51.333Z,98914.00
2023-01-04T18:14:18.215Z,98908.13
2023-01-04T18:16:58.018Z,98919.00
2023-01-04T18:19:27.865Z,98909.84
2023-01-04T18:21:55.031Z,98907.03
2023-01-04T18:24:38.655Z,98906.13
2023-01-04T18:27:25.193Z,98909.78
2023-01-04T18:29:54.284Z,98907.41
2023-01-04T18:32:22.007Z,98893.28
2023-01-04T18:34:48.943Z,98901.41
2023-01-04T18:37:16.566Z,98903.03
2023-01-04T18:39:43.424Z,98887.94
2023-01-04T18:42:10.337Z,98892.50
2023-01-04T18:44:43.811Z,98897.88
2023-01-04T18:47:12.683Z,98909.16
2023-01-04T18:49:39.483Z,98899.09
2023-01-04T18:52:06.359Z,98912.88
2023-01-04T18:54:34.027Z,98908.47
2023-01-04T18:57:01.638Z,98907.13
2023-01-04T18:59:30.965Z,98910.03
2023-01-04T19:02:02.910Z,98903.97
2023-01-04T19:04:32.283Z,98909.59
2023-01-04T19:06:59.451Z,98923.84
2023-01-04T19:09:26.251Z,98909.16
2023-01-04T19:11:53.015Z,98912.41
2023-01-04T19:14:19.789Z,98914.13
2023-01-04T19:16:46.546Z,98903.22
2023-01-04T19:19:13.171Z,98899.34
2023-01-04T19:21:40.156Z,98907.41
2023-01-04T19:24:07.249Z,98922.78
2023-01-04T19:26:36.570Z,98924.63
2023-01-04T19:29:05.203Z,98914.69
2023-01-04T19:31:31.917Z,98910.94
2023-01-04T19:33:58.630Z,98906.19
2023-01-04T19:36:25.350Z,98908.00
2023-01-04T19:38:53.677Z,98930.19
2023-01-04T19:41:31.018Z,98915.50
2023-01-04T19:44:05.661Z,98932.06
2023-01-04T19:46:32.674Z,98915.75
2023-01-04T19:48:59.838Z,98925.63
2023-01-04T19:51:27.909Z,98941.56
2023-01-04T19:53:55.116Z,98940.41
2023-01-04T19:56:22.116Z,98934.34
2023-01-04T19:58:48.973Z,98942.94
2023-01-04T20:01:21.334Z,98936.44
2023-01-04T20:03:48.307Z,98943.16
2023-01-04T20:06:16.260Z,98941.25
2023-01-04T20:08:43.513Z,98945.50
2023-01-04T20:11:11.788Z,98952.47
2023-01-04T20:13:39.243Z,98941.16
2023-01-04T20:16:06.489Z,98944.03
2023-01-04T20:18:33.899Z,98934.72
2023-01-04T20:21:00.620Z,98926.13
2023-01-04T20:23:27.856Z,98923.81
2023-01-04T20:25:54.848Z,98915.28
2023-01-04T20:28:24.941Z,98910.97
2023-01-04T20:31:06.864Z,98917.28
2023-01-04T20:33:33.771Z,98910.16
2023-01-04T20:36:06.659Z,98911.03
2023-01-04T20:38:39.875Z,98915.69
2023-01-04T20:41:08.303Z,98918.03
2023-01-04T20:43:36.191Z,98911.19
2023-01-04T20:46:12.172Z,98902.19
2023-01-04T20:48:39.801Z,98906.53
2023-01-04T20:51:15.190Z,98910.56
2023-01-04T20:53:42.304Z,98900.03
2023-01-04T20:56:18.432Z,98921.91
2023-01-04T20:58:46.435Z,98914.63
2023-01-04T21:01:14.046Z,98915.44
2023-01-04T21:03:40.944Z,98917.84
2023-01-04T21:06:13.339Z,98920.91
2023-01-04T21:08:41.954Z,98910.88
2023-01-04T21:11:09.521Z,98912.50
2023-01-04T21:13:36.224Z,98900.16
2023-01-04T21:16:03.105Z,98896.53
2023-01-04T21:18:29.921Z,98895.13
2023-01-04T21:20:56.581Z,98888.72
2023-01-04T21:23:26.859Z,98884.75
2023-01-04T21:25:53.864Z,98884.66
2023-01-04T21:28:21.860Z,98870.03
2023-01-04T21:30:49.509Z,98868.72
2023-01-04T21:33:17.147Z,98867.31
2023-01-04T21:35:44.027Z,98872.88
2023-01-04T21:38:11.386Z,98872.63
2023-01-04T21:40:41.767Z,98887.41
2023-01-04T21:43:15.978Z,98864.75
2023-01-04T21:45:42.916Z,98883.06
2023-01-04T21:48:09.688Z,98869.88
2023-01-04T21:50:36.952Z,98881.13
2023-01-04T21:53:03.886Z,98862.50
2023-01-04T21:55:34.495Z,98855.00
2023-01-04T21:58:02.181Z,98857.16
2023-01-04T22:00:28.843Z,98857.75
2023-01-04T22:02:55.556Z,98855.75
2023-01-04T22:05:22.509Z,98860.41
2023-01-04T22:07:49.211Z,98848.84
2023-01-04T22:10:15.930Z,98851.88
2023-01-04T22:12:44.816Z,98856.47
2023-01-04T22:15:11.647Z,98858.94
2023-01-04T22:17:38.549Z,98854.97
2023-01-04T22:20:05.817Z,98865.44
2023-01-04T22:22:32.556Z,98844.13
2023-01-04T22:24:59.195Z,98859.41
2023-01-04T22:27:27.160Z,98853.88
2023-01-04T22:29:53.855Z,98856.53
2023-01-04T22:32:20.507Z,98861.13
2023-01-04T22:34:47.123Z,98863.44
2023-01-04T22:37:13.808Z,98868.47
2023-01-04T22:39:40.480Z,98854.78
2023-01-04T22:42:07.307Z,98865.66
2023-01-04T22:44:34.106Z,98860.78
2023-01-04T22:47:00.957Z,98853.78
2023-01-04T22:49:27.688Z,98865.63
2023-01-04T22:51:55.779Z,98849.69
2023-01-04T22:54:22.948Z,98851.28
2023-01-04T22:56:50.478Z,98842.63
2023-01-04T22:59:17.237Z,98843.66
2023-01-04T23:01:43.932Z,98854.38
2023-01-04T23:04:15.395Z,98847.91
2023-01-04T23:06:42.433Z,98862.81
2023-01-04T23:09:13.071Z,98860.25
2023-01-04T23:11:41.002Z,98855.91
2023-01-04T23:14:11.113Z,98851.56
2023-01-04T23:16:38.395Z,98867.66
2023-01-04T23:19:06.821Z,98864.84
2023-01-04T23:21:34.831Z,98856.38
2023-01-04T23:24:02.236Z,98853.50
2023-01-04T23:26:30.299Z,98862.00
2023-01-04T23:28:57.218Z,98856.53
2023-01-04T23:31:25.937Z,98861.25
2023-01-04T23:33:54.979Z,98852.66
2023-01-04T23:36:24.273Z,98855.34
2023-01-04T23:38:53.344Z,98861.00
2023-01-04T23:41:20.267Z,98857.28
2023-01-04T23:43:47.248Z,98848.94
2023-01-04T23:46:16.193Z,98857.31
2023-01-04T23:48:43.959Z,98854.81
2023-01-04T23:51:13.073Z,98860.53
2023-01-04T23:53:39.954Z,98863.84
2023-01-04T23:56:13.348Z,98845.78
2023-01-04T23:58:40.158Z,98841.78
